Time;durP1;ratioP1;P1;durP2;ratioP2;P2;SDS_P1;SDS_P2;PMS_P1;PMS_P2;Temp;Humidity;BMP_temperature;BMP_pressure;BME280_temperature;BME280_humidity;BME280_pressure;Samples;Min_cycle;Max_cycle;Signal;HPM_P1;HPM_P2
2021/04/15 00:00:32;;;;;;;4.63;3.58;;;4.90;99.90;;;;;;2097284;28;20047;-69
2021/04/15 00:01:37;;;;;;;3.70;3.40;;;4.90;99.90;;;;;;2097083;28;20119;-69
2021/04/15 00:02:38;;;;;;;3.80;3.40;;;4.90;99.90;;;;;;2104669;28;20028;-69
2021/04/15 00:03:39;;;;;;;4.82;3.47;;;4.80;99.90;;;;;;2098599;28;20467;-69
2021/04/15 00:04:39;;;;;;;4.32;2.92;;;4.80;99.90;;;;;;2101174;28;20032;-69
2021/04/15 00:05:40;;;;;;;3.60;3.30;;;4.80;99.90;;;;;;2105339;28;20032;-69
2021/04/15 00:06:43;;;;;;;4.28;3.83;;;4.80;99.90;;;;;;2097815;28;20033;-68
2021/04/15 00:07:44;;;;;;;4.82;3.40;;;4.80;99.90;;;;;;2104842;28;20119;-68
2021/04/15 00:08:45;;;;;;;3.10;2.90;;;4.70;99.90;;;;;;2097656;28;20024;-68
2021/04/15 00:09:46;;;;;;;3.53;3.22;;;4.70;99.90;;;;;;2102178;28;20406;-69
2021/04/15 00:10:51;;;;;;;3.60;3.30;;;4.70;99.90;;;;;;2105211;28;20093;-69
2021/04/15 00:11:52;;;;;;;3.65;3.35;;;4.70;99.90;;;;;;2094469;28;20039;-69
2021/04/15 00:12:52;;;;;;;4.00;2.90;;;4.70;99.90;;;;;;2103298;28;20036;-69
2021/04/15 00:13:55;;;;;;;3.28;3.00;;;4.70;99.90;;;;;;2097541;28;20021;-69
2021/04/15 00:14:55;;;;;;;4.00;2.92;;;4.60;99.90;;;;;;2101338;28;20078;-69
2021/04/15 00:15:57;;;;;;;5.90;3.80;;;4.60;99.90;;;;;;2103878;28;20165;-69
2021/04/15 00:16:57;;;;;;;3.92;3.55;;;4.60;99.90;;;;;;2100387;28;20047;-69
2021/04/15 00:17:58;;;;;;;3.75;2.95;;;4.60;99.90;;;;;;2103061;28;20025;-69
2021/04/15 00:19:00;;;;;;;4.10;3.58;;;4.60;99.90;;;;;;2098501;28;21187;-69
2021/04/15 00:20:00;;;;;;;4.72;3.88;;;4.50;99.90;;;;;;2102495;28;20029;-69
2021/04/15 00:21:03;;;;;;;3.47;3.17;;;4.60;99.90;;;;;;2104738;28;20524;-69
2021/04/15 00:22:04;;;;;;;5.22;3.53;;;4.50;99.90;;;;;;2099402;28;20112;-69
2021/04/15 00:23:04;;;;;;;3.47;3.00;;;4.50;99.90;;;;;;2101299;28;20024;-69
2021/04/15 00:24:05;;;;;;;3.65;3.42;;;4.50;99.90;;;;;;2098786;28;20090;-68
2021/04/15 00:25:07;;;;;;;5.28;3.63;;;4.50;99.90;;;;;;2099698;28;20040;-68
2021/04/15 00:26:10;;;;;;;4.68;3.70;;;4.50;99.90;;;;;;2104804;28;20372;-68
2021/04/15 00:27:11;;;;;;;4.82;3.38;;;4.40;99.90;;;;;;2099848;28;20020;-68
2021/04/15 00:28:12;;;;;;;2.65;2.45;;;4.40;99.90;;;;;;2101230;28;20560;-68
2021/04/15 00:29:13;;;;;;;3.42;3.13;;;4.40;99.90;;;;;;2100211;28;20062;-69
2021/04/15 00:30:14;;;;;;;3.80;3.42;;;4.40;99.90;;;;;;2099405;28;20557;-69
2021/04/15 00:31:15;;;;;;;3.38;2.90;;;4.40;99.90;;;;;;2100225;28;20066;-69
2021/04/15 00:32:16;;;;;;;3.70;3.40;;;4.40;99.90;;;;;;2102042;28;20027;-69
2021/04/15 00:33:17;;;;;;;4.05;3.75;;;4.40;99.90;;;;;;2100660;28;20058;-69
2021/04/15 00:34:18;;;;;;;4.03;3.58;;;4.30;99.90;;;;;;2092973;28;20020;-69
2021/04/15 00:35:20;;;;;;;5.57;3.75;;;4.40;99.90;;;;;;2097742;28;20020;-69
2021/04/15 00:36:21;;;;;;;3.47;3.17;;;4.30;99.90;;;;;;2098614;28;20016;-69
2021/04/15 00:37:21;;;;;;;4.18;3.58;;;4.30;99.90;;;;;;2097719;28;20017;-69
2021/04/15 00:38:24;;;;;;;4.25;2.90;;;4.30;99.90;;;;;;2101468;28;20020;-69
2021/04/15 00:39:24;;;;;;;3.10;2.80;;;4.30;99.90;;;;;;2104114;28;20378;-69
2021/04/15 00:40:26;;;;;;;4.53;3.60;;;4.30;99.90;;;;;;2101203;28;20027;-69
2021/04/15 00:41:26;;;;;;;3.67;3.13;;;4.30;99.90;;;;;;2096297;28;20392;-69
2021/04/15 00:42:27;;;;;;;4.22;3.28;;;4.30;99.90;;;;;;2095852;28;20258;-69
2021/04/15 00:43:31;;;;;;;4.70;3.50;;;4.30;99.90;;;;;;2096355;28;20433;-69
2021/04/15 00:44:32;;;;;;;4.40;3.50;;;4.30;99.90;;;;;;2096094;28;20116;-69
2021/04/15 00:45:36;;;;;;;5.05;3.30;;;4.20;99.90;;;;;;2096433;28;20028;-69
2021/04/15 00:47:07;;;;;;;3.50;3.20;;;4.30;99.90;;;;;;2096375;28;20020;-69
2021/04/15 00:48:28;;;;;;;3.88;3.00;;;4.30;99.90;;;;;;2096751;28;20035;-69
2021/04/15 00:49:33;;;;;;;4.30;3.90;;;4.20;99.90;;;;;;2096657;28;20480;-69
2021/04/15 00:50:50;;;;;;;4.00;3.58;;;4.20;99.90;;;;;;2100309;28;20476;-69
2021/04/15 00:51:55;;;;;;;6.05;3.60;;;4.20;99.90;;;;;;2104717;28;20520;-69
2021/04/15 00:53:00;;;;;;;3.25;3.05;;;4.20;99.90;;;;;;2104288;28;20606;-69
2021/04/15 00:54:09;;;;;;;3.53;3.13;;;4.20;99.90;;;;;;2100178;28;20052;-69
2021/04/15 00:55:16;;;;;;;3.85;3.45;;;4.20;99.90;;;;;;2089029;28;20025;-69
2021/04/15 00:56:18;;;;;;;4.50;3.58;;;4.20;99.90;;;;;;2095823;28;20068;-69
2021/04/15 00:57:23;;;;;;;7.97;4.00;;;4.20;99.90;;;;;;2096543;28;20021;-69
2021/04/15 00:58:25;;;;;;;3.70;3.40;;;4.20;99.90;;;;;;2096594;28;20115;-69
2021/04/15 00:59:26;;;;;;;3.22;2.92;;;4.20;99.90;;;;;;2095771;28;20056;-69
2021/04/15 01:00:30;;;;;;;3.50;3.20;;;4.20;99.90;;;;;;2095793;28;20029;-69
2021/04/15 01:01:31;;;;;;;5.00;3.80;;;4.20;99.90;;;;;;2095712;28;20033;-69
2021/04/15 01:02:34;;;;;;;3.80;3.47;;;4.20;99.90;;;;;;2095833;28;20033;-69
2021/04/15 01:03:36;;;;;;;4.20;3.20;;;4.20;99.90;;;;;;2096323;28;20067;-69
2021/04/15 01:04:37;;;;;;;4.35;3.33;;;4.20;99.90;;;;;;2095705;28;20055;-69
2021/04/15 01:05:41;;;;;;;3.90;3.50;;;4.20;99.90;;;;;;2095365;28;20411;-69
2021/04/15 01:06:42;;;;;;;3.88;3.55;;;4.20;99.90;;;;;;2095397;28;20021;-69
2021/04/15 01:07:42;;;;;;;3.85;3.47;;;4.20;99.90;;;;;;2095663;28;20096;-69
2021/04/15 01:08:43;;;;;;;4.47;3.75;;;4.20;99.90;;;;;;2096403;28;20043;-69
2021/04/15 01:09:46;;;;;;;4.90;3.63;;;4.10;99.90;;;;;;2096195;28;20052;-69
2021/04/15 01:11:13;;;;;;;6.03;3.63;;;4.10;99.90;;;;;;2096487;28;20024;-69
2021/04/15 01:12:14;;;;;;;4.30;3.80;;;4.10;99.90;;;;;;2091635;28;20078;-69
2021/04/15 01:13:46;;;;;;;3.75;3.40;;;4.10;99.90;;;;;;2098898;28;20103;-69
2021/04/15 01:15:02;;;;;;;4.72;3.22;;;4.10;99.90;;;;;;2096221;28;20436;-69
2021/04/15 01:16:16;;;;;;;6.07;4.18;;;4.10;99.90;;;;;;2095909;28;20028;-69
2021/04/15 01:17:39;;;;;;;5.70;4.07;;;4.00;99.90;;;;;;2096406;28;20012;-69
2021/04/15 01:18:46;;;;;;;4.40;4.00;;;4.00;99.90;;;;;;2089299;28;20149;-69
2021/04/15 01:19:55;;;;;;;4.47;3.65;;;4.00;99.90;;;;;;2096054;28;20483;-69
2021/04/15 01:21:22;;;;;;;4.03;3.63;;;4.00;99.90;;;;;;2096317;28;20104;-69
2021/04/15 01:22:57;;;;;;;4.78;4.38;;;4.00;99.90;;;;;;2095705;28;20025;-69
2021/04/15 01:24:25;;;;;;;4.63;4.22;;;3.90;99.90;;;;;;2087926;28;20036;-69
2021/04/15 01:25:47;;;;;;;5.10;4.30;;;3.90;99.90;;;;;;2087636;28;20423;-69
2021/04/15 01:27:26;;;;;;;4.70;3.85;;;3.90;99.90;;;;;;2087337;28;20037;-69
2021/04/15 01:28:54;;;;;;;4.47;4.07;;;3.90;99.90;;;;;;2087464;28;20021;-69
2021/04/15 01:30:03;;;;;;;4.82;4.00;;;3.90;99.90;;;;;;2095138;28;20865;-69
2021/04/15 01:31:30;;;;;;;7.95;4.63;;;3.80;99.90;;;;;;2096240;28;20356;-69
2021/04/15 01:32:38;;;;;;;4.95;4.20;;;3.80;99.90;;;;;;2097695;28;20029;-69
2021/04/15 01:33:43;;;;;;;5.40;4.60;;;3.80;99.90;;;;;;2103879;28;20027;-69
2021/04/15 01:34:57;;;;;;;5.18;4.68;;;3.90;99.90;;;;;;2103915;28;20020;-69
2021/04/15 01:36:07;;;;;;;5.32;4.82;;;3.90;99.90;;;;;;2102806;28;20399;-70
2021/04/15 01:37:14;;;;;;;6.00;5.10;;;3.90;99.90;;;;;;2095515;28;20024;-69
2021/04/15 01:38:32;;;;;;;6.40;5.35;;;3.80;99.90;;;;;;2091269;28;20122;-69
2021/04/15 01:39:53;;;;;;;6.68;5.15;;;3.90;99.90;;;;;;2095237;28;20032;-69
2021/04/15 01:41:26;;;;;;;7.60;6.13;;;3.90;99.90;;;;;;2095573;28;20029;-69
2021/04/15 01:42:33;;;;;;;6.80;5.47;;;3.80;99.90;;;;;;2094949;28;20461;-69
2021/04/15 01:43:52;;;;;;;7.78;6.22;;;3.80;99.90;;;;;;2095560;28;20055;-69
2021/04/15 01:44:57;;;;;;;7.00;6.03;;;3.80;99.90;;;;;;2096028;28;20043;-69
2021/04/15 01:45:59;;;;;;;6.30;5.70;;;3.80;99.90;;;;;;2096602;28;20029;-69
2021/04/15 01:47:07;;;;;;;7.40;5.57;;;3.80;99.90;;;;;;2096088;28;20055;-69
2021/04/15 01:48:14;;;;;;;5.45;4.95;;;3.90;99.90;;;;;;2095461;28;20028;-69
2021/04/15 01:49:18;;;;;;;5.72;5.13;;;3.90;99.90;;;;;;2095239;28;20055;-69
2021/04/15 01:50:23;;;;;;;6.20;5.40;;;3.90;99.90;;;;;;2090348;28;20364;-69
2021/04/15 01:51:32;;;;;;;6.18;5.57;;;3.90;99.90;;;;;;2098016;28;20032;-69
2021/04/15 01:52:36;;;;;;;6.03;5.43;;;3.90;99.90;;;;;;2102700;28;20020;-69
2021/04/15 01:53:45;;;;;;;5.00;4.50;;;3.90;99.90;;;;;;2097731;28;20429;-69
2021/04/15 01:55:03;;;;;;;5.55;4.97;;;3.90;99.90;;;;;;2096910;28;20021;-69
2021/04/15 01:56:33;;;;;;;5.05;4.55;;;3.90;99.90;;;;;;2087935;28;20025;-69
2021/04/15 01:57:41;;;;;;;5.80;5.18;;;3.90;99.90;;;;;;2095138;28;20056;-69
2021/04/15 01:58:54;;;;;;;6.03;5.53;;;3.90;99.90;;;;;;2095377;28;20112;-69
2021/04/15 02:00:03;;;;;;;6.97;4.68;;;3.90;99.90;;;;;;2096304;28;20032;-69
2021/04/15 02:01:13;;;;;;;6.57;5.80;;;3.90;99.90;;;;;;2105113;28;20036;-69
2021/04/15 02:02:30;;;;;;;5.80;5.15;;;3.90;99.90;;;;;;2104530;28;20327;-69
2021/04/15 02:03:35;;;;;;;5.60;5.03;;;3.90;99.90;;;;;;2098816;28;20437;-69
2021/04/15 02:04:43;;;;;;;7.32;5.18;;;3.90;99.90;;;;;;2105463;28;20028;-69
2021/04/15 02:05:46;;;;;;;6.43;5.82;;;3.90;99.90;;;;;;2105163;28;20028;-69
2021/04/15 02:06:54;;;;;;;6.03;5.50;;;3.90;99.90;;;;;;2093115;28;20032;-69
2021/04/15 02:07:58;;;;;;;5.63;4.97;;;3.90;99.90;;;;;;2089868;28;20063;-69
2021/04/15 02:09:11;;;;;;;5.95;5.15;;;4.00;99.90;;;;;;2090499;28;20032;-69
2021/04/15 02:10:13;;;;;;;6.50;5.68;;;3.90;99.90;;;;;;2096172;28;20063;-69
2021/04/15 02:11:38;;;;;;;6.20;5.70;;;4.00;99.90;;;;;;2098294;28;20033;-69
2021/04/15 02:12:42;;;;;;;6.05;4.95;;;4.00;99.90;;;;;;2098039;28;20027;-69
2021/04/15 02:13:45;;;;;;;6.07;5.15;;;4.00;99.90;;;;;;2098083;28;20047;-69
2021/04/15 02:14:53;;;;;;;5.20;4.78;;;3.90;99.90;;;;;;2099271;28;20066;-69
2021/04/15 02:16:03;;;;;;;5.00;4.53;;;4.00;99.90;;;;;;2099109;28;20024;-69
2021/04/15 02:17:06;;;;;;;4.63;4.20;;;3.90;99.90;;;;;;2099333;28;20021;-69
2021/04/15 02:18:07;;;;;;;5.00;4.50;;;3.90;99.90;;;;;;2098823;28;20537;-69
2021/04/15 02:19:27;;;;;;;4.72;4.32;;;4.00;99.90;;;;;;2098278;28;20044;-69
2021/04/15 02:20:29;;;;;;;5.93;5.43;;;4.00;99.90;;;;;;2090583;28;20443;-69
2021/04/15 02:21:56;;;;;;;5.70;5.20;;;3.90;99.90;;;;;;2095783;28;20036;-69
2021/04/15 02:23:14;;;;;;;5.65;5.03;;;4.00;99.90;;;;;;2094425;28;20111;-69
2021/04/15 02:24:33;;;;;;;7.22;5.45;;;3.90;99.90;;;;;;2092429;28;20025;-69
2021/04/15 02:26:00;;;;;;;5.40;4.90;;;3.90;99.90;;;;;;2104439;28;20106;-69
2021/04/15 02:27:13;;;;;;;5.63;5.13;;;3.90;99.90;;;;;;2099210;28;20027;-69
2021/04/15 02:28:37;;;;;;;6.05;5.45;;;3.90;99.90;;;;;;2089918;28;20021;-69
2021/04/15 02:29:42;;;;;;;5.80;5.30;;;3.90;99.90;;;;;;2093418;28;20054;-69
2021/04/15 02:30:53;;;;;;;9.02;4.82;;;3.90;99.90;;;;;;2099215;28;20036;-69
2021/04/15 02:32:04;;;;;;;7.20;6.28;;;3.90;99.90;;;;;;2099712;28;20043;-69
2021/04/15 02:33:16;;;;;;;6.20;5.60;;;3.90;99.90;;;;;;2098630;28;20402;-69
2021/04/15 02:34:29;;;;;;;6.07;5.47;;;3.90;99.90;;;;;;2098053;28;20036;-69
2021/04/15 02:35:41;;;;;;;5.22;4.75;;;3.90;99.90;;;;;;2098303;28;20032;-69
2021/04/15 02:36:45;;;;;;;6.05;5.30;;;3.90;99.90;;;;;;2099080;28;20033;-69
2021/04/15 02:37:49;;;;;;;8.10;5.18;;;3.90;99.90;;;;;;2098068;28;20155;-69
2021/04/15 02:38:57;;;;;;;7.78;5.03;;;3.90;99.90;;;;;;2098324;28;20383;-69
2021/04/15 02:40:03;;;;;;;5.45;4.90;;;3.90;99.90;;;;;;2098845;28;20377;-69
2021/04/15 02:41:06;;;;;;;5.28;4.78;;;3.90;99.90;;;;;;2104215;28;20039;-69
2021/04/15 02:42:10;;;;;;;5.55;4.75;;;3.90;99.90;;;;;;2107162;28;20115;-69
2021/04/15 02:43:21;;;;;;;6.30;5.70;;;4.00;99.90;;;;;;2107130;28;20024;-69
2021/04/15 02:44:31;;;;;;;6.45;5.85;;;4.00;99.90;;;;;;2107275;28;20098;-69
2021/04/15 02:45:39;;;;;;;6.20;5.60;;;4.00;99.90;;;;;;2107491;28;20570;-69
2021/04/15 02:46:45;;;;;;;5.93;4.93;;;4.00;99.90;;;;;;2107265;28;20032;-69
2021/04/15 02:48:04;;;;;;;5.70;5.20;;;4.00;99.90;;;;;;2107569;28;20383;-69
2021/04/15 02:49:08;;;;;;;6.78;6.18;;;4.00;99.90;;;;;;2107107;28;20341;-69
2021/04/15 02:50:13;;;;;;;8.93;6.38;;;4.00;99.90;;;;;;2098766;28;20035;-69
2021/04/15 02:51:26;;;;;;;5.72;5.15;;;4.00;99.90;;;;;;2101780;28;20414;-69
2021/04/15 02:52:32;;;;;;;6.25;5.65;;;4.00;99.90;;;;;;2100668;28;20029;-69
2021/04/15 02:53:42;;;;;;;8.50;5.10;;;4.00;99.90;;;;;;2097863;28;20034;-69
2021/04/15 02:54:53;;;;;;;5.68;4.85;;;4.00;99.90;;;;;;2099291;28;20025;-69
2021/04/15 02:56:09;;;;;;;5.95;5.32;;;4.00;99.90;;;;;;2107534;28;20024;-69
2021/04/15 02:57:15;;;;;;;5.25;4.82;;;4.00;99.90;;;;;;2102686;28;20021;-69
2021/04/15 02:58:53;;;;;;;6.57;5.07;;;4.00;99.90;;;;;;2098265;28;20035;-69
2021/04/15 02:59:55;;;;;;;7.15;6.35;;;4.00;99.90;;;;;;2069183;28;20045;-69
2021/04/15 03:00:57;;;;;;;8.02;6.38;;;4.00;99.90;;;;;;2073474;28;20375;-69
2021/04/15 03:02:04;;;;;;;5.65;5.10;;;4.00;99.90;;;;;;2095425;28;20487;-69
2021/04/15 03:03:11;;;;;;;9.02;5.13;;;4.00;99.90;;;;;;2097562;28;20398;-69
2021/04/15 03:04:17;;;;;;;5.25;4.80;;;4.00;99.90;;;;;;2098155;28;20070;-69
2021/04/15 03:05:22;;;;;;;5.75;5.25;;;4.00;99.90;;;;;;2097728;28;20079;-69
2021/04/15 03:06:27;;;;;;;6.18;5.13;;;4.00;99.90;;;;;;2098025;28;20052;-69
2021/04/15 03:07:31;;;;;;;5.57;5.05;;;4.00;99.90;;;;;;2097723;28;20108;-69
2021/04/15 03:08:32;;;;;;;5.70;4.57;;;4.00;99.90;;;;;;2102219;28;20519;-69
2021/04/15 03:09:37;;;;;;;5.82;5.20;;;4.00;99.90;;;;;;2105911;28;20387;-69
2021/04/15 03:10:49;;;;;;;6.50;5.90;;;4.00;99.90;;;;;;2089399;28;20037;-69
2021/04/15 03:12:20;;;;;;;4.85;4.45;;;4.00;99.90;;;;;;2093475;28;20154;-69
2021/04/15 03:13:32;;;;;;;5.32;4.78;;;4.00;99.90;;;;;;2097677;28;20032;-69
2021/04/15 03:14:43;;;;;;;5.55;4.88;;;3.90;99.90;;;;;;2097460;28;20107;-69
2021/04/15 03:15:49;;;;;;;5.50;4.88;;;3.90;99.90;;;;;;2096748;28;20107;-69
2021/04/15 03:16:54;;;;;;;6.82;5.28;;;3.90;99.90;;;;;;2096807;28;20060;-69
2021/04/15 03:18:03;;;;;;;5.35;4.95;;;3.90;99.90;;;;;;2098780;28;20527;-69
2021/04/15 03:19:24;;;;;;;5.70;5.20;;;3.90;99.90;;;;;;2105734;28;20103;-69
2021/04/15 03:20:30;;;;;;;5.63;4.95;;;3.90;99.90;;;;;;2105943;28;20467;-69
2021/04/15 03:21:56;;;;;;;5.03;4.53;;;3.90;99.90;;;;;;2104960;28;20032;-69
2021/04/15 03:23:02;;;;;;;5.25;4.60;;;3.80;99.90;;;;;;2098203;28;20021;-69
2021/04/15 03:24:11;;;;;;;6.30;5.47;;;3.80;99.90;;;;;;2089080;28;20032;-69
2021/04/15 03:25:12;;;;;;;5.90;5.40;;;3.80;99.90;;;;;;2088890;28;20080;-69
2021/04/15 03:26:35;;;;;;;6.80;5.38;;;3.80;99.90;;;;;;2092463;28;20024;-69
2021/04/15 03:27:41;;;;;;;6.22;4.80;;;3.80;99.90;;;;;;2097408;28;20402;-69
2021/04/15 03:29:06;;;;;;;5.63;4.50;;;3.70;99.90;;;;;;2097156;28;20532;-69
2021/04/15 03:30:07;;;;;;;8.30;6.07;;;3.70;99.90;;;;;;2087982;28;20044;-69
2021/04/15 03:31:15;;;;;;;5.40;4.80;;;3.70;99.90;;;;;;2096719;28;20063;-69
2021/04/15 03:32:40;;;;;;;7.93;5.55;;;3.70;99.90;;;;;;2105270;28;20028;-69
2021/04/15 03:34:03;;;;;;;5.75;5.03;;;3.70;99.90;;;;;;2105957;28;20024;-69
2021/04/15 03:35:13;;;;;;;6.07;5.25;;;3.60;99.90;;;;;;2105575;28;20142;-69
2021/04/15 03:36:27;;;;;;;6.05;4.95;;;3.60;99.90;;;;;;2105731;28;20020;-69
2021/04/15 03:37:40;;;;;;;6.30;5.10;;;3.60;99.90;;;;;;2104767;28;20035;-69
2021/04/15 03:38:56;;;;;;;6.50;5.88;;;3.60;99.90;;;;;;2096489;28;20044;-69
2021/04/15 03:39:57;;;;;;;5.07;4.63;;;3.50;99.90;;;;;;2091236;28;20100;-69
2021/04/15 03:41:06;;;;;;;5.65;5.15;;;3.50;99.90;;;;;;2097074;28;20660;-69
2021/04/15 03:42:19;;;;;;;6.07;5.00;;;3.50;99.90;;;;;;2096866;28;20024;-69
2021/04/15 03:43:28;;;;;;;6.50;4.75;;;3.50;99.90;;;;;;2097405;28;20506;-69
2021/04/15 03:44:32;;;;;;;5.57;4.90;;;3.50;99.90;;;;;;2097313;28;20383;-69
2021/04/15 03:45:42;;;;;;;5.28;4.78;;;3.40;99.90;;;;;;2097114;28;20056;-69
2021/04/15 03:47:08;;;;;;;6.82;5.57;;;3.40;99.90;;;;;;2097467;28;20051;-69
2021/04/15 03:48:23;;;;;;;5.55;5.00;;;3.40;99.90;;;;;;2089627;28;20389;-69
2021/04/15 03:49:47;;;;;;;4.78;4.28;;;3.40;99.90;;;;;;2104560;28;20023;-69
2021/04/15 03:51:08;;;;;;;5.22;4.70;;;3.30;99.90;;;;;;2098743;28;20029;-68
2021/04/15 03:52:16;;;;;;;6.30;5.32;;;3.30;99.90;;;;;;2096787;28;20103;-69
2021/04/15 03:53:27;;;;;;;6.70;5.82;;;3.30;99.90;;;;;;2097017;28;20107;-69
2021/04/15 03:54:29;;;;;;;;;;;3.20;99.90;;;;;;2089712;28;20425;-69
2021/04/15 03:55:51;;;;;;;7.28;5.10;;;3.20;99.90;;;;;;2098015;28;19908;-69
2021/04/15 03:56:56;;;;;;;7.00;5.28;;;3.10;99.90;;;;;;2097571;28;20032;-68
2021/04/15 03:58:07;;;;;;;7.25;5.05;;;3.20;99.90;;;;;;2097062;28;20383;-68
2021/04/15 03:59:10;;;;;;;6.80;5.40;;;3.10;99.90;;;;;;2098412;28;20042;-68
2021/04/15 04:00:16;;;;;;;7.43;5.22;;;3.10;99.90;;;;;;2101889;28;20021;-68
2021/04/15 04:01:30;;;;;;;6.32;5.22;;;3.10;99.90;;;;;;2101089;28;20051;-69
2021/04/15 04:02:46;;;;;;;6.20;5.65;;;3.10;99.90;;;;;;2088256;28;20071;-69
2021/04/15 04:03:59;;;;;;;6.82;6.03;;;3.10;99.90;;;;;;2094092;28;20026;-69
2021/04/15 04:05:04;;;;;;;6.60;5.90;;;3.10;99.90;;;;;;2097487;28;20060;-68
2021/04/15 04:06:18;;;;;;;6.10;5.35;;;3.10;99.90;;;;;;2096405;28;20057;-68
2021/04/15 04:07:29;;;;;;;7.80;6.45;;;3.10;99.90;;;;;;2096428;28;20079;-68
2021/04/15 04:08:44;;;;;;;11.23;6.03;;;3.00;99.90;;;;;;2101124;28;20460;-68
2021/04/15 04:09:59;;;;;;;6.82;6.10;;;3.00;99.90;;;;;;2104401;28;20016;-69
2021/04/15 04:11:00;;;;;;;8.25;5.45;;;3.00;99.90;;;;;;2105125;28;20031;-69
2021/04/15 04:12:05;;;;;;;6.20;5.60;;;3.00;99.90;;;;;;2105166;28;20027;-69
2021/04/15 04:13:34;;;;;;;6.20;5.22;;;3.00;99.90;;;;;;2105292;28;20031;-69
2021/04/15 04:14:51;;;;;;;6.65;5.88;;;2.90;99.90;;;;;;2105037;28;20032;-69
2021/04/15 04:16:14;;;;;;;7.65;6.18;;;2.90;99.90;;;;;;2105516;28;20016;-69
2021/04/15 04:18:02;;;;;;;5.25;4.75;;;2.90;99.90;;;;;;2104782;28;20359;-69
2021/04/15 04:19:30;;;;;;;7.07;5.75;;;2.90;99.90;;;;;;2084810;28;20045;-68
2021/04/15 04:20:34;;;;;;;6.28;5.65;;;2.80;99.90;;;;;;2088716;28;20043;-69
2021/04/15 04:21:41;;;;;;;6.35;5.10;;;2.80;99.90;;;;;;2094133;28;20086;-68
2021/04/15 04:23:01;;;;;;;7.05;6.35;;;2.80;99.90;;;;;;2096097;28;20076;-68
2021/04/15 04:24:25;;;;;;;7.03;5.75;;;2.80;99.90;;;;;;2096994;28;20020;-68
2021/04/15 04:25:32;;;;;;;7.03;6.10;;;2.80;99.90;;;;;;2096931;28;20077;-69
2021/04/15 04:26:58;;;;;;;9.98;6.47;;;2.70;99.90;;;;;;2096577;28;20025;-68
2021/04/15 04:28:28;;;;;;;6.97;5.05;;;2.70;99.90;;;;;;2096631;28;20029;-68
2021/04/15 04:29:51;;;;;;;6.50;5.80;;;2.70;99.90;;;;;;2100736;28;20038;-69
2021/04/15 04:30:57;;;;;;;7.78;5.88;;;2.70;99.90;;;;;;2104912;28;20028;-68
2021/04/15 04:32:03;;;;;;;7.60;5.95;;;2.70;99.90;;;;;;2105394;28;20039;-68
2021/04/15 04:33:06;;;;;;;8.23;6.40;;;2.70;99.90;;;;;;2104798;28;20043;-68
2021/04/15 04:34:08;;;;;;;6.32;5.72;;;2.70;99.90;;;;;;2105207;28;20395;-68
2021/04/15 04:35:16;;;;;;;7.00;6.28;;;2.60;99.90;;;;;;2105364;28;20024;-68
2021/04/15 04:36:20;;;;;;;5.70;5.20;;;2.60;99.90;;;;;;2105252;28;20024;-68
2021/04/15 04:37:30;;;;;;;5.93;5.43;;;2.60;99.90;;;;;;2102038;28;20129;-68
2021/04/15 04:38:31;;;;;;;;;;;2.60;99.90;;;;;;2096023;28;20055;-68
2021/04/15 04:39:32;;;;;;;9.95;6.57;;;2.50;99.90;;;;;;2095877;28;19987;-68
2021/04/15 04:40:37;;;;;;;7.20;5.57;;;2.50;99.90;;;;;;2091536;28;20120;-68
2021/04/15 04:41:47;;;;;;;9.05;6.25;;;2.60;99.90;;;;;;2087631;28;20112;-68
2021/04/15 04:42:55;;;;;;;7.18;6.47;;;2.50;99.90;;;;;;2088925;28;20029;-68
2021/04/15 04:44:11;;;;;;;9.02;6.00;;;2.50;99.90;;;;;;2091367;28;20132;-68
2021/04/15 04:45:16;;;;;;;10.88;6.93;;;2.50;99.90;;;;;;2088052;28;20020;-69
2021/04/15 04:46:32;;;;;;;8.13;6.15;;;2.50;99.90;;;;;;2089826;28;20056;-68
2021/04/15 04:47:50;;;;;;;6.40;5.38;;;2.50;99.90;;;;;;2090659;28;20029;-68
2021/04/15 04:48:55;;;;;;;6.18;5.55;;;2.50;99.90;;;;;;2089308;28;20108;-69
2021/04/15 04:50:13;;;;;;;9.02;6.10;;;2.50;99.90;;;;;;2091133;28;20564;-68
2021/04/15 04:51:18;;;;;;;6.20;5.60;;;2.50;99.90;;;;;;2090254;28;20035;-68
2021/04/15 04:52:23;;;;;;;7.25;5.53;;;2.40;99.90;;;;;;2088535;28;20021;-68
2021/04/15 04:54:02;;;;;;;7.97;5.68;;;2.40;99.90;;;;;;2089114;28;20017;-68
2021/04/15 04:55:19;;;;;;;6.63;5.85;;;2.40;99.90;;;;;;2056297;28;20448;-68
2021/04/15 04:56:30;;;;;;;6.93;5.78;;;2.40;99.90;;;;;;2090794;28;20017;-68
2021/04/15 04:57:40;;;;;;;6.13;5.53;;;2.40;99.90;;;;;;2090457;28;20033;-68
2021/04/15 04:58:40;;;;;;;7.80;6.57;;;2.40;99.90;;;;;;2092159;28;20028;-68
2021/04/15 04:59:50;;;;;;;6.07;5.47;;;2.40;99.90;;;;;;2088813;28;20526;-68
2021/04/15 05:00:54;;;;;;;9.63;6.53;;;2.40;99.90;;;;;;2088547;28;20029;-69
2021/04/15 05:01:55;;;;;;;8.32;6.50;;;2.40;99.90;;;;;;2090397;28;20258;-68
2021/04/15 05:02:56;;;;;;;6.88;6.18;;;2.40;99.90;;;;;;2087653;28;20048;-69
2021/04/15 05:04:03;;;;;;;7.07;5.82;;;2.40;99.90;;;;;;2091210;28;20051;-69
2021/04/15 05:05:25;;;;;;;6.22;5.63;;;2.40;99.90;;;;;;2091939;28;20023;-69
2021/04/15 05:06:29;;;;;;;7.00;6.30;;;2.40;99.90;;;;;;2093464;28;20466;-69
2021/04/15 05:07:33;;;;;;;6.65;5.60;;;2.40;99.90;;;;;;2095695;28;20036;-68
2021/04/15 05:08:58;;;;;;;6.13;5.63;;;2.30;99.90;;;;;;2092253;28;20576;-68
2021/04/15 05:09:58;;;;;;;9.23;6.55;;;2.40;99.90;;;;;;2094759;28;20466;-68
2021/04/15 05:11:00;;;;;;;7.47;6.47;;;2.30;99.90;;;;;;2092364;28;20017;-68
2021/04/15 05:12:07;;;;;;;7.00;6.18;;;2.40;99.90;;;;;;2096281;28;20029;-68
2021/04/15 05:13:19;;;;;;;8.25;7.18;;;2.40;99.90;;;;;;2093854;28;20040;-68
2021/04/15 05:14:25;;;;;;;9.35;7.50;;;2.40;99.90;;;;;;2093205;28;20025;-69
2021/04/15 05:15:26;;;;;;;7.45;6.72;;;2.40;99.90;;;;;;2091254;28;20021;-68
2021/04/15 05:16:34;;;;;;;9.95;7.47;;;2.40;99.90;;;;;;2092026;28;20052;-68
2021/04/15 05:17:38;;;;;;;8.60;7.53;;;2.40;99.90;;;;;;2091945;28;20112;-68
2021/04/15 05:18:39;;;;;;;12.32;8.73;;;2.40;99.90;;;;;;2095751;28;20037;-68
2021/04/15 05:19:39;;;;;;;11.52;8.60;;;2.40;99.90;;;;;;2094699;28;20033;-68
2021/04/15 05:20:41;;;;;;;9.90;7.80;;;2.40;99.90;;;;;;2095859;28;20028;-68
2021/04/15 05:21:43;;;;;;;7.70;6.93;;;2.40;99.90;;;;;;2096235;28;20467;-68
2021/04/15 05:23:05;;;;;;;8.98;6.88;;;2.40;99.90;;;;;;2095285;28;20036;-68
2021/04/15 05:24:21;;;;;;;9.85;8.00;;;2.40;99.90;;;;;;2093024;28;20029;-68
2021/04/15 05:25:40;;;;;;;7.82;6.97;;;2.30;99.90;;;;;;2090405;28;20033;-68
2021/04/15 05:26:43;;;;;;;8.35;6.07;;;2.40;99.90;;;;;;2094717;28;20028;-68
2021/04/15 05:27:44;;;;;;;9.30;6.85;;;2.40;99.90;;;;;;2096077;28;20113;-68
2021/04/15 05:28:47;;;;;;;7.38;6.68;;;2.40;99.90;;;;;;2093858;28;20836;-68
2021/04/15 05:29:55;;;;;;;10.15;7.57;;;2.40;99.90;;;;;;2094757;28;20041;-68
2021/04/15 05:30:57;;;;;;;8.88;6.88;;;2.40;99.90;;;;;;2094322;28;20099;-68
2021/04/15 05:31:59;;;;;;;9.55;7.72;;;2.40;99.90;;;;;;2095427;28;20031;-69
2021/04/15 05:33:02;;;;;;;8.40;7.55;;;2.50;99.90;;;;;;2095425;28;20028;-68
2021/04/15 05:34:25;;;;;;;10.80;8.02;;;2.50;99.90;;;;;;2094619;28;20016;-68
2021/04/15 05:35:31;;;;;;;7.95;7.15;;;2.50;99.90;;;;;;2093581;28;20415;-68
2021/04/15 05:36:39;;;;;;;12.63;7.93;;;2.60;99.90;;;;;;2091441;28;20551;-68
2021/04/15 05:37:40;;;;;;;9.73;7.78;;;2.60;99.90;;;;;;2095591;28;20028;-68
2021/04/15 05:38:44;;;;;;;11.80;8.40;;;2.70;99.90;;;;;;2096366;28;20043;-68
2021/04/15 05:39:45;;;;;;;8.88;8.02;;;2.70;99.90;;;;;;2096175;28;20971;-68
2021/04/15 05:40:50;;;;;;;9.95;7.93;;;2.80;99.90;;;;;;2096215;28;20024;-69
2021/04/15 05:42:10;;;;;;;9.10;8.20;;;2.80;99.90;;;;;;2095528;28;20757;-68
2021/04/15 05:43:41;;;;;;;10.93;7.57;;;2.90;99.90;;;;;;2090444;28;20028;-68
2021/04/15 05:44:46;;;;;;;12.38;8.02;;;2.90;99.90;;;;;;2094371;28;20024;-69
2021/04/15 05:45:50;;;;;;;8.65;7.43;;;3.00;99.90;;;;;;2093685;28;20035;-69
2021/04/15 05:46:53;;;;;;;8.63;7.50;;;3.00;99.90;;;;;;2092668;28;20572;-68
2021/04/15 05:48:04;;;;;;;11.55;8.13;;;3.10;99.90;;;;;;2090499;28;20075;-68
2021/04/15 05:49:05;;;;;;;9.68;7.93;;;3.10;99.90;;;;;;2093277;28;20036;-69
2021/04/15 05:50:15;;;;;;;8.75;7.63;;;3.20;99.90;;;;;;2095804;28;20109;-69
2021/04/15 05:51:21;;;;;;;8.82;7.60;;;3.20;99.90;;;;;;2093072;28;20027;-69
2021/04/15 05:52:40;;;;;;;8.75;7.22;;;3.30;99.90;;;;;;2092010;28;20108;-69
2021/04/15 05:53:49;;;;;;;9.50;8.32;;;3.40;99.90;;;;;;2096318;28;20037;-69
2021/04/15 05:54:53;;;;;;;9.10;8.00;;;3.40;99.90;;;;;;2094097;28;20031;-68
2021/04/15 05:56:10;;;;;;;10.00;8.65;;;3.40;99.90;;;;;;2091288;28;20029;-68
2021/04/15 05:57:23;;;;;;;10.93;8.15;;;3.50;99.90;;;;;;2096411;28;20020;-69
2021/04/15 05:58:26;;;;;;;12.48;8.05;;;3.50;99.90;;;;;;2096214;28;20511;-69
2021/04/15 05:59:33;;;;;;;9.02;7.90;;;3.60;99.90;;;;;;2093783;28;20383;-69
2021/04/15 06:01:04;;;;;;;8.80;7.55;;;3.60;99.90;;;;;;2094018;28;20417;-69
2021/04/15 06:02:22;;;;;;;10.32;7.80;;;3.70;99.90;;;;;;2093136;28;20086;-69
2021/04/15 06:03:51;;;;;;;11.65;8.38;;;3.70;99.90;;;;;;2096000;28;20013;-69
2021/04/15 06:05:10;;;;;;;10.77;6.68;;;3.80;99.90;;;;;;2071143;28;20144;-69
2021/04/15 06:06:15;;;;;;;13.20;8.75;;;3.80;99.90;;;;;;2093723;28;20020;-69
2021/04/15 06:07:22;;;;;;;15.07;9.45;;;3.90;99.90;;;;;;2096053;28;20360;-69